Главная страница
METAR-TAF:

METAR-TAF

Аэропорты :

Уральск, Казахстан

широта: 51-15N, долгота: 051-17E, высота над уровнем моря: 36 м

Текущие метеонаблюдения

Эта сводка был подготовлена 20 минут назад, в 02:30 UTC
Ветер 6 Узел от северно-северо-западный
Температура 17°C
Влажность 72%
Давление 1009 hPa
Видимость 10 км и более
Нет облачности ниже 1500 м, и нет кучево-дождевой облачности

METAR: UARR 210230Z 34003MPS CAVOK 17/12 Q1009 R04/CLRD70 NOSIG RMK QFE753/1004

Время: 07:50 (02:50 UTC)

Прогноз

Эта сводка был подготовлена 3 часа и 50 минут назад, в 23:00 UTC
Прогноз действительный с 21-го 00 UTC до 21-го 09 UTC
Ветер 10 Узел от северно-северо-западный
Видимость 10 км и более
Отдельные облака на высоте 3300 фута
временами
С 21-го 06 UTC до 21-го 09 UTC
Ветер 14 Узел от северно-северо-западный с порывами до 23 Узел

TAF: UARR 202300Z 2100/2109 34005MPS 9999 SCT033 TEMPO 2106/2109 33007G12MPS

Метеонаблюдения и прогнозы для более 4000 аэропортов (сводки METAR и TAF).

Имеющиеся станции представлены на карте желтыми и красными точками.

Чтобы увидеть название станции, наведите на нее мышь.

Затем щелкните, чтобы увидеть метеонаблюдения и метеопрогнозы.

Управление картой: чтобы увеличить масштаб, щелкните зеленые кнопки с черным крестиком; чтобы уменьшить масштаб, щелкните зеленую кнопку с тире; для просмотра соседних карт щелкайте зеленые стрелки.


METAR-TAF: